createdAt,value
2022-10-23T00:00:29.072Z,101081.78
2022-10-23T00:03:00.592Z,101095.72
2022-10-23T00:05:31.229Z,101092.81
2022-10-23T00:08:02.201Z,101089.28
2022-10-23T00:10:32.685Z,101104.66
2022-10-23T00:13:03.704Z,101091.97
2022-10-23T00:15:37.402Z,101032.06
2022-10-23T00:18:07.928Z,101116.59
2022-10-23T00:20:38.325Z,101121.75
2022-10-23T00:23:08.774Z,101123.88
2022-10-23T00:25:39.991Z,101122.19
2022-10-23T00:28:10.967Z,101080.53
2022-10-23T00:30:41.404Z,101126.38
2022-10-23T00:33:12.193Z,101142.16
2022-10-23T00:35:43.960Z,101140.09
2022-10-23T00:38:14.628Z,101141.34
2022-10-23T00:40:46.425Z,101142.19
2022-10-23T00:43:26.473Z,100986.34
2022-10-23T00:45:57.781Z,101144.66
2022-10-23T00:48:30.319Z,101124.47
2022-10-23T00:51:00.898Z,101126.75
2022-10-23T00:53:31.370Z,101144.25
2022-10-23T00:56:04.236Z,101134.66
2022-10-23T00:58:34.530Z,101125.94
2022-10-23T01:01:16.944Z,101118.03
2022-10-23T01:03:47.996Z,101142.78
2022-10-23T01:06:44.043Z,101106.81
2022-10-23T01:09:17.634Z,101155.94
2022-10-23T01:12:23.236Z,101134.47
2022-10-23T01:15:10.299Z,101088.09
2022-10-23T01:18:03.594Z,101174.44
2022-10-23T01:21:07.111Z,101128.44
2022-10-23T01:23:51.479Z,101180.69
2022-10-23T01:26:27.480Z,101176.94
2022-10-23T01:29:33.072Z,101174.84
2022-10-23T01:32:23.631Z,101170.09
2022-10-23T01:34:59.159Z,101081.00
2022-10-23T01:37:37.364Z,101186.28
2022-10-23T01:40:19.633Z,101186.66
2022-10-23T01:42:59.570Z,101091.41
2022-10-23T01:45:43.327Z,101088.06
2022-10-23T01:48:23.218Z,101120.94
2022-10-23T01:50:57.317Z,101193.75
2022-10-23T01:53:32.182Z,101190.22
2022-10-23T01:56:07.892Z,101133.19
2022-10-23T01:58:39.886Z,101188.72
2022-10-23T02:01:12.300Z,101192.97
2022-10-23T02:03:52.322Z,101108.00
2022-10-23T02:06:23.109Z,101192.47
2022-10-23T02:08:53.842Z,101201.22
2022-10-23T02:11:24.324Z,101192.66
2022-10-23T02:14:05.208Z,101194.34
2022-10-23T02:16:58.389Z,101128.78
2022-10-23T02:19:51.262Z,101191.63
2022-10-23T02:22:37.925Z,101116.13
2022-10-23T02:25:29.385Z,101119.25
2022-10-23T02:28:03.359Z,101173.28
2022-10-23T02:30:44.176Z,101190.00
2022-10-23T02:33:18.037Z,101197.06
2022-10-23T02:35:49.959Z,101194.19
2022-10-23T02:38:36.433Z,101188.75
2022-10-23T02:41:30.239Z,101206.66
2022-10-23T02:44:44.827Z,101202.50
2022-10-23T02:47:30.378Z,101191.63
2022-10-23T02:50:24.705Z,101198.91
2022-10-23T02:53:06.607Z,101193.69
2022-10-23T02:55:39.951Z,101199.44
2022-10-23T02:58:23.683Z,101195.88
2022-10-23T03:01:10.988Z,101184.88
2022-10-23T03:03:48.095Z,101184.78
2022-10-23T03:06:19.143Z,101169.81
2022-10-23T03:09:00.143Z,101096.41
2022-10-23T03:11:31.242Z,101172.25
2022-10-23T03:14:01.744Z,101171.81
2022-10-23T03:16:32.740Z,101171.38
2022-10-23T03:19:03.203Z,101170.94
2022-10-23T03:21:33.843Z,101170.50
2022-10-23T03:24:06.701Z,101151.78
2022-10-23T03:26:42.256Z,101159.00
2022-10-23T03:29:13.469Z,101151.72
2022-10-23T03:31:49.198Z,101145.00
2022-10-23T03:34:20.404Z,101142.31
2022-10-23T03:36:50.834Z,101130.19
2022-10-23T03:39:23.531Z,101132.47
2022-10-23T03:41:54.234Z,101118.91
2022-10-23T03:44:24.786Z,101099.13
2022-10-23T03:46:55.199Z,101111.97
2022-10-23T03:49:25.985Z,101104.44
2022-10-23T03:51:56.480Z,101097.13
2022-10-23T03:54:30.798Z,101000.53
2022-10-23T03:57:02.443Z,101087.28
2022-10-23T03:59:32.809Z,101073.94
2022-10-23T04:02:03.728Z,101065.56
2022-10-23T04:04:35.135Z,101064.31
2022-10-23T04:07:05.790Z,101050.53
2022-10-23T04:09:36.322Z,101051.16
2022-10-23T04:12:07.675Z,101032.31
2022-10-23T04:14:38.656Z,101041.91
2022-10-23T04:17:09.866Z,101031.13
2022-10-23T04:19:40.382Z,101025.06
2022-10-23T04:22:10.821Z,101017.59
2022-10-23T04:24:47.533Z,101009.66
2022-10-23T04:27:21.401Z,101008.28
2022-10-23T04:29:54.257Z,101002.91
2022-10-23T04:32:27.430Z,101005.72
2022-10-23T04:34:57.847Z,100994.34
2022-10-23T04:37:29.174Z,100995.94
2022-10-23T04:39:59.519Z,100975.06
2022-10-23T04:42:30.032Z,100926.31
2022-10-23T04:45:03.042Z,100976.19
2022-10-23T04:47:33.660Z,100969.03
2022-10-23T04:50:06.146Z,100959.84
2022-10-23T04:52:59.508Z,100893.88
2022-10-23T04:55:29.921Z,100953.03
2022-10-23T04:58:20.014Z,100942.19
2022-10-23T05:00:51.669Z,100947.53
2022-10-23T05:03:28.692Z,100925.91
2022-10-23T05:05:59.207Z,100936.59
2022-10-23T05:08:47.808Z,100930.09
2022-10-23T05:11:42.968Z,100926.09
2022-10-23T05:14:14.065Z,100911.25
2022-10-23T05:16:59.596Z,100839.25
2022-10-23T05:19:45.512Z,100896.94
2022-10-23T05:22:16.573Z,100902.81
2022-10-23T05:24:54.766Z,100897.28
2022-10-23T05:27:28.290Z,100882.50
2022-10-23T05:29:59.310Z,100884.00
2022-10-23T05:32:35.581Z,100796.28
2022-10-23T05:35:20.733Z,100871.94
2022-10-23T05:37:54.432Z,100861.25
2022-10-23T05:40:27.981Z,100858.53
2022-10-23T05:43:06.948Z,100852.50
2022-10-23T05:45:50.594Z,100850.41
2022-10-23T05:48:34.711Z,100846.63
2022-10-23T05:51:24.399Z,100826.09
2022-10-23T05:54:15.232Z,100822.00
2022-10-23T05:57:01.592Z,100822.81
2022-10-23T05:59:38.726Z,100814.47
2022-10-23T06:02:24.700Z,100799.47
2022-10-23T06:05:00.899Z,100783.66
2022-10-23T06:07:46.642Z,100792.06
2022-10-23T06:10:18.541Z,100788.91
2022-10-23T06:12:52.482Z,100778.03
2022-10-23T06:15:22.720Z,100772.22
2022-10-23T06:18:07.363Z,100769.78
2022-10-23T06:20:41.917Z,100756.81
2022-10-23T06:23:17.780Z,100759.66
2022-10-23T06:26:16.715Z,100675.19
2022-10-23T06:29:13.117Z,100745.63
2022-10-23T06:31:45.772Z,100736.91
2022-10-23T06:34:16.778Z,100735.44
2022-10-23T06:36:48.228Z,100735.44
2022-10-23T06:39:47.751Z,100719.16
2022-10-23T06:42:50.155Z,100724.56
2022-10-23T06:45:36.744Z,100720.56
2022-10-23T06:48:16.751Z,100702.41
2022-10-23T06:51:07.390Z,100621.63
2022-10-23T06:53:45.130Z,100684.03
2022-10-23T06:56:36.164Z,100684.91
2022-10-23T06:59:09.977Z,100673.22
2022-10-23T07:01:41.839Z,100676.91
2022-10-23T07:04:16.836Z,100671.63
2022-10-23T07:06:54.857Z,100674.75
2022-10-23T07:09:28.821Z,100670.84
2022-10-23T07:11:59.284Z,100674.88
2022-10-23T07:14:38.364Z,100620.34
2022-10-23T07:17:09.731Z,100680.56
2022-10-23T07:19:41.557Z,100665.09
2022-10-23T07:22:16.244Z,100679.38
2022-10-23T07:25:12.640Z,100679.97
2022-10-23T07:27:44.232Z,100677.84
2022-10-23T07:30:16.372Z,100681.97
2022-10-23T07:32:52.382Z,100679.84
2022-10-23T07:35:42.495Z,100674.44
2022-10-23T07:38:21.728Z,100685.84
2022-10-23T07:41:00.247Z,100704.38
2022-10-23T07:46:06.810Z,100708.19
2022-10-23T07:48:41.893Z,100696.50
2022-10-23T07:51:17.259Z,100700.38
2022-10-23T07:53:50.746Z,100706.53
2022-10-23T07:56:43.442Z,100713.28
2022-10-23T07:59:24.053Z,100715.16
2022-10-23T08:01:57.560Z,100702.88
2022-10-23T08:04:34.535Z,100707.47
2022-10-23T08:07:14.101Z,100697.69
2022-10-23T08:09:46.671Z,100679.75
2022-10-23T08:12:17.110Z,100664.97
2022-10-23T08:14:47.554Z,100668.28
2022-10-23T08:17:18.340Z,100654.59
2022-10-23T08:20:09.988Z,100658.13
2022-10-23T08:22:45.457Z,100654.59
2022-10-23T08:25:24.820Z,100651.41
2022-10-23T08:27:57.889Z,100652.97
2022-10-23T08:30:29.401Z,100656.94
2022-10-23T08:33:01.409Z,100668.03
2022-10-23T08:35:31.982Z,100673.94
2022-10-23T08:38:02.431Z,100677.72
2022-10-23T08:40:37.629Z,100680.19
2022-10-23T08:43:51.352Z,100658.81
2022-10-23T08:46:40.793Z,100581.00
2022-10-23T08:50:01.287Z,100666.59
2022-10-23T08:53:03.875Z,100657.63
2022-10-23T08:55:48.155Z,100665.44
2022-10-23T08:58:26.026Z,100624.47
2022-10-23T09:00:56.712Z,100654.91
2022-10-23T09:03:28.669Z,100651.25
2022-10-23T09:06:09.879Z,100651.00
2022-10-23T09:08:53.027Z,100683.00
2022-10-23T09:11:47.821Z,100682.53
2022-10-23T09:14:50.718Z,100701.06
2022-10-23T09:17:26.850Z,100711.97
2022-10-23T09:20:25.343Z,100704.59
2022-10-23T09:23:06.472Z,100611.97
2022-10-23T09:25:40.234Z,100686.06
2022-10-23T09:28:26.360Z,100628.75
2022-10-23T09:31:11.712Z,100675.78
2022-10-23T09:33:42.816Z,100688.53
2022-10-23T09:36:15.663Z,100697.16
2022-10-23T09:38:48.789Z,100702.34
2022-10-23T09:41:32.500Z,100719.19
2022-10-23T09:44:09.277Z,100742.72
2022-10-23T09:46:41.095Z,100755.22
2022-10-23T09:49:47.635Z,100782.41
2022-10-23T09:52:18.858Z,100793.69
2022-10-23T09:55:04.757Z,100810.78
2022-10-23T09:57:45.939Z,100763.41
2022-10-23T10:00:28.279Z,100764.28
2022-10-23T10:03:01.435Z,100755.31
2022-10-23T10:05:45.555Z,100745.50
2022-10-23T10:08:41.693Z,100736.41
2022-10-23T10:11:14.601Z,100728.88
2022-10-23T10:14:08.912Z,100732.66
2022-10-23T10:16:52.893Z,100729.34
2022-10-23T10:19:34.959Z,100754.38
2022-10-23T10:22:22.068Z,100780.28
2022-10-23T10:25:02.299Z,100810.75
2022-10-23T10:27:56.674Z,100827.25
2022-10-23T10:30:31.890Z,100826.88
2022-10-23T10:33:16.848Z,100831.25
2022-10-23T10:36:22.335Z,100816.50
2022-10-23T10:39:05.413Z,100746.91
2022-10-23T10:41:54.978Z,100774.94
2022-10-23T10:44:35.506Z,100850.94
2022-10-23T10:47:21.493Z,100829.00
2022-10-23T10:50:31.913Z,100844.81
2022-10-23T10:53:43.471Z,100856.13
2022-10-23T10:56:16.877Z,100819.75
2022-10-23T10:58:53.146Z,100788.78
2022-10-23T11:01:53.582Z,100899.53
2022-10-23T11:04:54.483Z,100903.28
2022-10-23T11:07:32.427Z,100817.41
2022-10-23T11:10:15.449Z,100912.78
2022-10-23T11:12:48.387Z,100915.50
2022-10-23T11:15:30.420Z,100923.50
2022-10-23T11:18:05.002Z,100866.94
2022-10-23T11:20:58.969Z,100944.13
2022-10-23T11:23:53.254Z,100947.06
2022-10-23T11:26:54.232Z,100933.84
2022-10-23T11:29:50.488Z,100945.03
2022-10-23T11:32:50.035Z,100957.41
2022-10-23T11:35:45.034Z,100966.22
2022-10-23T11:38:43.480Z,100958.81
2022-10-23T11:41:26.726Z,100949.22
2022-10-23T11:44:08.195Z,100872.06
2022-10-23T11:46:40.174Z,100867.09
2022-10-23T11:49:23.067Z,100945.78
2022-10-23T11:52:06.008Z,100943.06
2022-10-23T11:54:36.529Z,100937.41
2022-10-23T11:57:10.692Z,100949.94
2022-10-23T11:59:44.031Z,100960.53
2022-10-23T12:02:35.107Z,100974.34
2022-10-23T12:05:10.448Z,100992.69
2022-10-23T12:07:43.498Z,100906.34
2022-10-23T12:10:20.635Z,100988.53
2022-10-23T12:13:00.016Z,100980.22
2022-10-23T12:15:31.213Z,100970.66
2022-10-23T12:18:16.948Z,100906.78
2022-10-23T12:20:50.673Z,101002.34
2022-10-23T12:23:57.912Z,101016.13
2022-10-23T12:26:37.218Z,101012.41
2022-10-23T12:29:22.588Z,101010.28
2022-10-23T12:32:15.341Z,100997.44
2022-10-23T12:35:09.672Z,100999.06
2022-10-23T12:37:46.355Z,100992.81
2022-10-23T12:40:17.052Z,100994.47
2022-10-23T12:42:58.327Z,100997.84
2022-10-23T12:45:40.107Z,101006.56
2022-10-23T12:48:22.025Z,101014.50
2022-10-23T12:50:57.916Z,101005.75
2022-10-23T12:53:28.598Z,101008.44
2022-10-23T12:56:02.786Z,100945.56
2022-10-23T12:58:35.915Z,100949.38
2022-10-23T13:01:09.300Z,101017.50
2022-10-23T13:03:40.740Z,101012.94
2022-10-23T13:06:13.092Z,100935.34
2022-10-23T13:11:44.996Z,101029.69
2022-10-23T13:14:40.742Z,101033.91
2022-10-23T13:17:14.429Z,101033.47
2022-10-23T13:19:44.856Z,101033.09
2022-10-23T13:22:24.272Z,101038.06
2022-10-23T13:24:54.664Z,101045.16
2022-10-23T13:27:35.895Z,101041.00
2022-10-23T13:30:09.957Z,101033.94
2022-10-23T13:32:41.501Z,101053.28
2022-10-23T13:35:32.168Z,101073.50
2022-10-23T13:38:10.284Z,101079.72
2022-10-23T13:40:40.767Z,101072.84
2022-10-23T13:43:20.603Z,101073.91
2022-10-23T13:45:51.011Z,101071.00
2022-10-23T13:48:22.487Z,101095.56
2022-10-23T13:50:53.295Z,101091.59
2022-10-23T13:53:23.769Z,101085.56
2022-10-23T13:55:57.830Z,101081.63
2022-10-23T13:58:29.276Z,101047.72
2022-10-23T14:01:00.347Z,101072.66
2022-10-23T14:03:31.112Z,101071.22
2022-10-23T14:06:02.390Z,101075.38
2022-10-23T14:08:32.981Z,101081.22
2022-10-23T14:11:03.704Z,101091.41
2022-10-23T14:13:34.858Z,101103.06
2022-10-23T14:16:05.643Z,101101.59
2022-10-23T14:18:36.309Z,101099.50
2022-10-23T14:21:09.257Z,101016.47
2022-10-23T14:23:39.862Z,101071.41
2022-10-23T14:26:16.700Z,101102.78
2022-10-23T14:28:47.581Z,101092.63
2022-10-23T14:31:19.262Z,101101.56
2022-10-23T14:33:57.329Z,100946.28
2022-10-23T14:36:38.291Z,101113.38
2022-10-23T14:39:19.722Z,101118.16
2022-10-23T14:41:50.372Z,101124.19
2022-10-23T14:44:22.306Z,101123.38
2022-10-23T14:46:53.222Z,101130.84
2022-10-23T14:49:23.722Z,101117.53
2022-10-23T14:51:54.329Z,101112.94
2022-10-23T14:54:24.753Z,101108.78
2022-10-23T14:56:55.179Z,101091.31
2022-10-23T14:59:25.723Z,101077.38
2022-10-23T15:01:56.168Z,101086.75
2022-10-23T15:04:26.656Z,101096.97
2022-10-23T15:06:57.254Z,101104.03
2022-10-23T15:09:28.358Z,101100.91
2022-10-23T15:12:08.710Z,101090.09
2022-10-23T15:14:39.365Z,101087.22
2022-10-23T15:17:14.562Z,101081.59
2022-10-23T15:19:46.237Z,101081.19
2022-10-23T15:22:16.662Z,101077.47
2022-10-23T15:24:48.913Z,101074.75
2022-10-23T15:27:20.251Z,101060.59
2022-10-23T15:29:51.097Z,101066.41
2022-10-23T15:32:21.711Z,101066.41
2022-10-23T15:34:54.764Z,101067.25
2022-10-23T15:37:25.437Z,101070.16
2022-10-23T15:40:01.159Z,101057.06
2022-10-23T15:42:32.813Z,101060.16
2022-10-23T15:45:03.609Z,101074.31
2022-10-23T15:47:34.479Z,101008.59
2022-10-23T15:50:05.227Z,101069.72
2022-10-23T15:52:35.731Z,101067.66
2022-10-23T15:55:06.923Z,101060.78
2022-10-23T15:57:37.292Z,101071.81
2022-10-23T16:00:20.715Z,100986.94
2022-10-23T16:02:51.700Z,101063.06
2022-10-23T16:05:22.009Z,101069.31
2022-10-23T16:07:52.396Z,101055.38
2022-10-23T16:10:23.858Z,101052.28
2022-10-23T16:12:54.798Z,101057.69
2022-10-23T16:15:25.298Z,101047.28
2022-10-23T16:17:55.830Z,101044.78
2022-10-23T16:20:26.552Z,101035.22
2022-10-23T16:22:56.970Z,101042.28
2022-10-23T16:25:27.493Z,101047.47
2022-10-23T16:28:00.517Z,101022.31
2022-10-23T16:30:31.065Z,101045.19
2022-10-23T16:33:01.671Z,101037.09
2022-10-23T16:35:32.096Z,101038.53
2022-10-23T16:38:11.121Z,101031.50
2022-10-23T16:40:41.509Z,101028.16
2022-10-23T16:43:41.829Z,101030.63
2022-10-23T16:46:30.197Z,101023.75
2022-10-23T16:49:00.947Z,101022.75
2022-10-23T16:51:34.434Z,101001.34
2022-10-23T16:54:04.975Z,101006.53
2022-10-23T16:56:35.348Z,101001.13
2022-10-23T16:59:06.464Z,100991.34
2022-10-23T17:01:37.168Z,100987.00
2022-10-23T17:04:11.401Z,100907.97
2022-10-23T17:06:42.325Z,100966.84
2022-10-23T17:09:13.115Z,100947.09
2022-10-23T17:11:46.694Z,100863.09
2022-10-23T17:14:19.508Z,100894.66
2022-10-23T17:16:53.052Z,100854.38
2022-10-23T17:22:18.807Z,100943.34
2022-10-23T17:24:51.604Z,100950.81
2022-10-23T17:27:24.242Z,100946.66
2022-10-23T17:29:54.650Z,100941.25
2022-10-23T17:32:25.322Z,100911.31
2022-10-23T17:34:55.905Z,100922.16
2022-10-23T17:37:26.303Z,100923.63
2022-10-23T17:40:00.154Z,100912.16
2022-10-23T17:42:31.774Z,100906.34
2022-10-23T17:45:02.297Z,100912.59
2022-10-23T17:47:32.807Z,100915.28
2022-10-23T17:50:03.457Z,100915.91
2022-10-23T17:52:33.965Z,100912.38
2022-10-23T17:55:04.550Z,100908.84
2022-10-23T17:57:35.199Z,100901.78
2022-10-23T18:00:07.405Z,100894.69
2022-10-23T18:02:42.356Z,100877.66
2022-10-23T18:05:13.412Z,100895.13
2022-10-23T18:07:44.038Z,100897.22
2022-10-23T18:10:14.892Z,100891.81
2022-10-23T18:12:45.859Z,100893.06
2022-10-23T18:15:16.895Z,100900.13
2022-10-23T18:17:50.674Z,100897.63
2022-10-23T18:20:21.476Z,100860.22
2022-10-23T18:22:52.436Z,100879.75
2022-10-23T18:25:22.835Z,100867.09
2022-10-23T18:27:53.309Z,100866.47
2022-10-23T18:30:23.939Z,100865.63
2022-10-23T18:32:54.823Z,100849.00
2022-10-23T18:35:26.179Z,100862.31
2022-10-23T18:37:56.552Z,100841.09
2022-10-23T18:40:27.923Z,100852.75
2022-10-23T18:42:58.692Z,100846.91
2022-10-23T18:45:29.054Z,100842.53
2022-10-23T18:47:59.519Z,100838.63
2022-10-23T18:50:30.343Z,100834.44
2022-10-23T18:53:01.000Z,100824.06
2022-10-23T18:58:07.123Z,100831.94
2022-10-23T19:00:37.481Z,100825.09
2022-10-23T19:03:07.944Z,100820.72
2022-10-23T19:05:38.520Z,100825.72
2022-10-23T19:08:08.907Z,100818.66
2022-10-23T19:10:40.812Z,100814.91
2022-10-23T19:13:11.161Z,100812.00
2022-10-23T19:15:41.695Z,100809.09
2022-10-23T19:18:12.785Z,100785.44
2022-10-23T19:20:44.559Z,100796.66
2022-10-23T19:23:15.972Z,100787.09
2022-10-23T19:25:48.819Z,100778.78
2022-10-23T19:28:19.982Z,100784.41
2022-10-23T19:30:50.480Z,100790.81
2022-10-23T19:33:20.928Z,100787.53
2022-10-23T19:35:51.297Z,100785.84
2022-10-23T19:38:21.687Z,100772.13
2022-10-23T19:40:52.471Z,100778.78
2022-10-23T19:43:22.792Z,100770.47
2022-10-23T19:45:53.278Z,100761.53
2022-10-23T19:48:23.688Z,100777.53
2022-10-23T19:50:54.105Z,100775.47
2022-10-23T19:53:25.045Z,100746.63
2022-10-23T19:56:08.060Z,100768.00
2022-10-23T19:58:38.797Z,100777.94
2022-10-23T20:01:20.475Z,100644.69
2022-10-23T20:03:51.399Z,100771.94
2022-10-23T20:06:25.974Z,100706.53
2022-10-23T20:08:57.050Z,100776.72
2022-10-23T20:11:30.498Z,100787.72
2022-10-23T20:14:01.100Z,100784.19
2022-10-23T20:16:34.354Z,100792.28
2022-10-23T20:19:07.674Z,100768.84
2022-10-23T20:21:40.138Z,100761.38
2022-10-23T20:24:11.870Z,100765.31
2022-10-23T20:26:50.604Z,100773.59
2022-10-23T20:29:23.136Z,100768.84
2022-10-23T20:31:54.050Z,100768.44
2022-10-23T20:34:24.505Z,100767.19
2022-10-23T20:36:55.104Z,100766.13
2022-10-23T20:39:27.533Z,100754.72
2022-10-23T20:41:58.563Z,100774.22
2022-10-23T20:44:30.642Z,100765.91
2022-10-23T20:47:01.057Z,100768.44
2022-10-23T20:49:31.504Z,100754.69
2022-10-23T20:52:03.778Z,100726.44
2022-10-23T20:54:34.244Z,100776.72
2022-10-23T20:57:04.683Z,100772.97
2022-10-23T20:59:35.193Z,100775.47
2022-10-23T21:02:05.866Z,100757.22
2022-10-23T21:04:36.439Z,100771.31
2022-10-23T21:07:11.117Z,100771.31
2022-10-23T21:09:42.048Z,100773.19
2022-10-23T21:12:12.964Z,100769.66
2022-10-23T21:14:43.355Z,100772.56
2022-10-23T21:17:17.875Z,100771.75
2022-10-23T21:19:48.405Z,100760.94
2022-10-23T21:22:18.984Z,100780.88
2022-10-23T21:24:49.419Z,100779.19
2022-10-23T21:27:19.845Z,100782.94
2022-10-23T21:29:50.292Z,100788.34
2022-10-23T21:32:21.870Z,100791.88
2022-10-23T21:34:52.284Z,100766.09
2022-10-23T21:37:22.679Z,100793.75
2022-10-23T21:39:53.050Z,100795.41
2022-10-23T21:42:23.652Z,100775.88
2022-10-23T21:44:54.723Z,100783.34
2022-10-23T21:47:38.277Z,100810.34
2022-10-23T21:50:09.335Z,100815.13
2022-10-23T21:52:40.218Z,100823.22
2022-10-23T21:55:11.132Z,100829.44
2022-10-23T21:57:41.915Z,100838.16
2022-10-23T22:00:17.304Z,100780.97
2022-10-23T22:02:47.981Z,100836.47
2022-10-23T22:05:18.767Z,100776.63
2022-10-23T22:07:49.965Z,100834.41
2022-10-23T22:10:20.378Z,100826.47
2022-10-23T22:12:50.871Z,100837.13
2022-10-23T22:15:21.914Z,100838.16
2022-10-23T22:17:52.361Z,100841.88
2022-10-23T22:20:23.072Z,100822.94
2022-10-23T22:22:53.936Z,100830.69
2022-10-23T22:25:24.393Z,100837.28
2022-10-23T22:27:54.845Z,100852.03
2022-10-23T22:30:25.313Z,100858.28
2022-10-23T22:32:55.821Z,100854.28
2022-10-23T22:35:26.831Z,100818.53
2022-10-23T22:37:57.293Z,100860.50
2022-10-23T22:40:41.901Z,100704.41
2022-10-23T22:43:14.905Z,100873.41
2022-10-23T22:45:45.938Z,100856.34
2022-10-23T22:48:16.472Z,100850.50
2022-10-23T22:50:48.079Z,100873.38
2022-10-23T22:53:18.504Z,100881.69
2022-10-23T22:55:48.922Z,100877.50
2022-10-23T22:58:19.685Z,100897.03
2022-10-23T23:00:51.560Z,100903.22
2022-10-23T23:03:22.230Z,100880.34
2022-10-23T23:05:53.056Z,100907.78
2022-10-23T23:08:23.456Z,100840.44
2022-10-23T23:10:55.320Z,100828.22
2022-10-23T23:13:26.784Z,100904.72
2022-10-23T23:15:57.765Z,100914.09
2022-10-23T23:18:29.058Z,100884.78
2022-10-23T23:21:03.955Z,100849.25
2022-10-23T23:23:34.497Z,100918.53
2022-10-23T23:26:08.031Z,100840.94
2022-10-23T23:28:38.806Z,100934.13
2022-10-23T23:31:13.134Z,100948.44
2022-10-23T23:33:43.733Z,100930.59
2022-10-23T23:36:17.612Z,100953.47
2022-10-23T23:38:48.055Z,100945.78
2022-10-23T23:41:21.151Z,100959.94
2022-10-23T23:43:54.198Z,100936.22
2022-10-23T23:46:25.182Z,100955.41
2022-10-23T23:48:56.242Z,100959.50
2022-10-23T23:51:27.763Z,100963.03
2022-10-23T23:53:58.684Z,100961.38
2022-10-23T23:56:29.202Z,100972.16
2022-10-23T23:58:59.936Z,100978.63
